Data for 08/19/2010

Time Sea-Level Adjusted Pressure Absolute Pressure Temperature Relative Humidity Dew Point   
(mb) (inHg) (mb) (inHg) (C) (F) (%) (C) (F)
00:05 1017 30.03 846 24.98 17.5 63.5 45 5.4 41.7
00:10 1017 30.03 846 24.98 17.6 63.7 43 5 41.1
00:15 1017 30.03 846 24.98 17.7 63.8 44 5.4 41.7
00:20 1017 30.03 846 24.98 17.4 63.3 46 5.7 42.2
00:25 1017 30.03 846 24.98 17.1 62.8 46 5.6 42.1
00:30 1017 30.03 846 24.98 16.9 62.5 45 5.1 41.1
00:35 1017 30.03 846 24.98 17 62.7 45 5.2 41.4
00:40 1017 30.03 846 24.98 17.1 62.7 48 6 42.7
00:45 1017 30.03 846 24.98 17.2 63 45 5.2 41.3
00:50 1017 30.03 846 24.98 17.3 63.2 45 5.5 41.9
00:55 1017 30.03 846 24.98 17.3 63.2 45 5.4 41.7
01:00 1017 30.03 846 24.98 17.2 63 45 5.4 41.7
01:05 1017 30.03 846 24.98 17.1 62.7 45 5.2 41.4
01:10 1017 30.03 846 24.98 17 62.6 45 5 41
01:15 1017 30.03 846 24.98 17.1 62.8 45 5.3 41.5
01:20 1017 30.03 846 24.98 17.1 62.7 45 5.2 41.4
01:25 1017 30.03 846 24.98 16.9 62.5 46 5.3 41.5
01:30 1017 30.03 846 24.98 17.1 62.7 45 5 41
01:35 1017 30.03 846 24.98 17.3 63.1 44 4.9 40.9
01:40 1017 30.03 846 24.98 17.4 63.4 44 5 41.1
01:45 1017 30.03 846 24.98 17.3 63.2 43 4.8 40.7
01:50 1017 30.03 846 24.98 17.5 63.4 44 5.2 41.4
01:55 1017 30.03 846 24.98 17.1 62.7 46 5.4 41.7
02:00 1017 30.03 846 24.98 16.9 62.5 46 5.5 41.9
02:05 1017 30.03 846 24.98 16.5 61.6 48 5.4 41.7
02:10 1017 30.03 846 24.98 16.1 60.9 51 5.9 42.6
02:15 1017 30.03 846 24.98 15.9 60.7 49 5.2 41.3
02:20 1017 30.03 846 24.98 16.1 60.9 50 5.8 42.5
02:25 1017 30.03 846 24.98 16 60.7 51 5.8 42.5
02:30 1017 30.03 846 24.98 16 60.8 52 6.3 43.3
02:35 1017 30.03 846 24.98 15.8 60.4 54 6.5 43.8
02:40 1017 30.03 846 24.98 15.3 59.5 55 6.4 43.5
02:45 1017 30.03 846 24.98 15.1 59.1 53 5.7 42.2
02:50 1017 30.03 846 24.98 15 58.9 53 5.6 42.1
02:55 1016 30 846 24.98 14.7 58.4 54 5.5 41.9
03:00 1017 30.03 846 24.98 14.4 57.9 56 5.8 42.4
03:05 1017 30.03 846 24.98 14.2 57.5 55 5.4 41.7
03:10 1017 30.03 846 24.98 14.4 58 54 5.3 41.6
03:15 1016 30 846 24.98 14.6 58.3 53 5.2 41.4
03:20 1016 30 846 24.98 14.6 58.3 53 5.3 41.5
03:25 1016 30 846 24.98 14.6 58.3 53 5.3 41.5
03:30 1016 30 846 24.98 14.7 58.5 53 5.2 41.4
03:35 1016 30 846 24.98 14.8 58.6 52 5.1 41.3
03:40 1016 30 846 24.98 14.8 58.6 53 5.4 41.7
03:45 1016 30 846 24.98 14.7 58.5 53 5.2 41.4
03:50 1016 30 846 24.98 14.6 58.2 55 5.6 42.1
03:55 1016 30 846 24.98 13.8 56.8 59 6 42.7
04:00 1016 30 845 24.95 13.5 56.3 57 5.2 41.3
04:05 1016 30 845 24.95 13.8 56.9 55 5 41.1
04:10 1016 30 845 24.95 14 57.2 55 5.2 41.4
04:15 1016 30 845 24.95 14 57.1 56 5.3 41.6
04:20 1016 30 845 24.95 14.1 57.4 55 5.3 41.6
04:25 1016 30 845 24.95 14 57.2 55 5.3 41.6
04:30 1016 30 845 24.95 14 57.2 55 5.2 41.3
04:35 1016 30 845 24.95 14.1 57.3 54 5.1 41.2
04:40 1016 30 845 24.95 14.3 57.7 52 4.7 40.5
04:45 1016 30 846 24.98 14.7 58.4 51 4.8 40.7
04:50 1016 30 846 24.98 14.9 58.8 50 4.8 40.6
04:55 1016 30 846 24.98 14.9 58.9 50 4.8 40.6
05:00 1016 30 846 24.98 14.9 58.9 51 4.8 40.7
05:05 1016 30 846 24.98 15 58.9 50 4.8 40.7
05:10 1016 30 846 24.98 14.9 58.8 51 4.8 40.7
05:15 1016 30 846 24.98 14.9 58.8 52 5.1 41.1
05:20 1016 30 846 24.98 14 57.1 57 5.6 42.1
05:25 1016 30 846 24.98 13.5 56.2 56 4.8 40.6
05:30 1016 30 846 24.98 14.1 57.3 53 4.8 40.7
05:35 1016 30 846 24.98 14 57.2 55 5.1 41.3
05:40 1016 30 846 24.98 13.7 56.7 56 5.1 41.1
05:45 1016 30 846 24.98 13.6 56.4 57 5.1 41.3
05:50 1016 30 846 24.98 13.4 56.1 57 5.1 41.2
05:55 1016 30 846 24.98 13.2 55.8 58 5.1 41.2
06:00 1017 30.03 846 24.98 13.1 55.6 57 4.9 40.9
06:05 1017 30.03 846 24.98 13.4 56 56 4.7 40.5
06:10 1017 30.03 846 24.98 13.4 56 57 5 41
06:15 1017 30.03 846 24.98 13.1 55.5 57 4.7 40.5
06:20 1017 30.03 846 24.98 13.4 56.1 55 4.5 40.1
06:25 1017 30.03 846 24.98 13.9 57.1 53 4.7 40.4
06:30 1016 30 846 24.98 13.9 57 54 4.8 40.6
06:35 1017 30.03 846 24.98 13.6 56.4 56 4.9 40.9
06:40 1017 30.03 846 24.98 13.2 55.7 58 5.1 41.2
06:45 1017 30.03 846 24.98 12.7 54.9 59 5 40.9
06:50 1017 30.03 846 24.98 12.4 54.4 60 5 41
06:55 1017 30.03 846 24.98 12.3 54.1 61 5.1 41.1
07:00 1017 30.03 846 24.98 12.2 54 61 4.9 40.8
07:05 1017 30.03 846 24.98 12.6 54.6 58 4.6 40.3
07:10 1017 30.03 846 24.98 13.2 55.7 55 4.5 40.1
07:15 1017 30.03 846 24.98 13.6 56.5 54 4.5 40.2
07:20 1017 30.03 846 24.98 13.8 56.8 55 5 40.9
07:25 1017 30.03 846 24.98 14.3 57.7 54 5.2 41.4
07:30 1017 30.03 846 24.98 15.1 59.1 52 5.3 41.5
07:35 1017 30.03 846 24.98 15 59.1 53 5.6 42.1
07:40 1017 30.03 846 24.98 14.5 58 55 5.6 42.1
07:45 1017 30.03 846 24.98 14.4 57.9 55 5.5 41.9
07:50 1017 30.03 846 24.98 14.3 57.7 54 5.2 41.3
07:55 1017 30.03 846 24.98 14.4 58 54 5.3 41.5
08:00 1017 30.03 846 24.98 14.7 58.4 54 5.7 42.2
08:05 1017 30.03 846 24.98 15.1 59.2 54 5.9 42.6
08:10 1017 30.03 846 24.98 15.1 59.1 54 6 42.8
08:15 1017 30.03 846 24.98 15.1 59.2 53 5.6 42
08:20 1017 30.03 846 24.98 15.5 60 51 5.6 42.2
08:25 1017 30.03 846 24.98 16 60.8 50 5.7 42.2
08:30 1017 30.03 846 24.98 16.4 61.5 48 5.5 41.9
08:35 1017 30.03 846 24.98 16.6 61.8 50 6.3 43.3
08:40 1017 30.03 846 24.98 16.5 61.7 53 7 44.6
08:45 1017 30.03 846 24.98 16.5 61.7 50 6.1 43
08:50 1017 30.03 846 24.98 16.4 61.6 51 6.3 43.3
08:55 1017 30.03 846 24.98 16.9 62.4 51 6.9 44.5
09:00 1017 30.03 846 24.98 17.7 63.8 47 6.3 43.4
09:05 1017 30.03 846 24.98 18.7 65.7 45 6.5 43.8
09:10 1017 30.03 846 24.98 19.5 67 42 6.3 43.4
09:15 1017 30.03 846 24.98 19.6 67.3 45 7.5 45.5
09:20 1017 30.03 846 24.98 19.5 67 42 6.5 43.7
09:25 1017 30.03 846 24.98 20.5 68.8 39 6.1 43
09:30 1017 30.03 846 24.98 21.1 70 40 7.3 45.1
09:35 1017 30.03 846 24.98 21.6 70.8 40 7.6 45.6
09:40 1017 30.03 846 24.98 21.8 71.2 35 5.7 42.3
09:45 1017 30.03 846 24.98 21.8 71.3 34 5.6 42
09:50 1017 30.03 846 24.98 22 71.7 33 5.2 41.4
09:55 1017 30.03 846 24.98 22.6 72.8 32 5.2 41.3
10:00 1017 30.03 846 24.98 22.1 71.8 33 5.4 41.8
10:05 1017 30.03 846 24.98 21.5 70.6 36 5.9 42.7
10:10 1017 30.03 846 24.98 21.4 70.4 34 4.8 40.7
10:15 1016 30 846 24.98 21.4 70.5 33 4.8 40.6
10:20 1016 30 846 24.98 21.6 70.9 34 5.2 41.3
10:25 1016 30 846 24.98 21.9 71.4 30 3.8 38.9
10:30 1016 30 845 24.95 22.8 73 31 5 41.1
10:35 1016 30 845 24.95 23.1 73.5 30 5 40.9
10:40 1016 30 845 24.95 23.7 74.7 28 4.6 40.2
10:45 1016 30 845 24.95 23.8 74.8 31 5.6 42.2
10:50 1016 30 845 24.95 23.6 74.5 31 5.5 41.9
10:55 1016 30 845 24.95 23.7 74.6 31 5.6 42
11:00 1016 30 845 24.95 23.7 74.7 30 5.2 41.3
11:05 1016 30 845 24.95 24.2 75.6 29 5.5 41.9
11:10 1016 30 845 24.95 24 75.1 29 5.2 41.4
11:15 1016 30 845 24.95 23.2 73.8 31 5.2 41.4
11:20 1016 30 845 24.95 23.9 75.1 28 4.8 40.6
11:25 1016 30 845 24.95 24.5 76.1 28 5.2 41.4
11:30 1016 30 845 24.95 24.5 76.2 29 5.4 41.6
11:35 1016 30 845 24.95 24.8 76.6 27 5 41
11:40 1016 30 845 24.95 24.7 76.5 27 4.7 40.5
11:45 1016 30 845 24.95 25.2 77.4 27 5.1 41.2
11:50 1016 30 845 24.95 25.3 77.6 27 5.4 41.7
11:55 1016 30 845 24.95 25 77.1 27 4.8 40.6
12:00 1016 30 845 24.95 25.2 77.4 27 5.4 41.7
12:05 1016 30 845 24.95 24.9 76.8 28 5.2 41.4
12:10 1016 30 845 24.95 25.4 77.8 26 5 41
12:15 1016 30 845 24.95 26 78.9 25 4.6 40.3
12:20 1016 30 845 24.95 26.1 79 25 5.1 41.1
12:25 1016 30 845 24.95 25 77 27 4.9 40.8
12:30 1016 30 845 24.95 24.7 76.5 25 3.8 38.9
12:35 1016 30 845 24.95 24.7 76.4 26 4.4 39.9
12:40 1015 29.97 845 24.95 24.3 75.7 27 4.5 40.2
12:45 1015 29.97 845 24.95 25.4 77.7 23 3.3 37.9
12:50 1015 29.97 845 24.95 25.7 78.3 25 4.3 39.7
12:55 1015 29.97 844 24.92 25.6 78.1 24 4 39.3
13:00 1015 29.97 844 24.92 25.5 77.8 26 4.8 40.6
13:05 1015 29.97 844 24.92 25 77 26 4.4 40
13:10 1015 29.97 844 24.92 25.4 77.8 24 3.6 38.5
13:15 1015 29.97 844 24.92 26.3 79.4 23 3.9 39.1
13:20 1015 29.97 844 24.92 26.3 79.3 24 4.1 39.4
13:25 1015 29.97 844 24.92 26.7 80 22 3.8 38.8
13:30 1015 29.97 844 24.92 25.7 78.3 25 4.2 39.6
13:35 1015 29.97 844 24.92 26.4 79.5 22 3.2 37.8
13:40 1015 29.97 844 24.92 27.5 81.4 20 3.1 37.6
13:45 1015 29.97 844 24.92 27.1 80.8 21 3.3 38
13:50 1015 29.97 844 24.92 27.4 81.3 21 3.7 38.6
13:55 1015 29.97 844 24.92 26.4 79.6 24 4.3 39.7
14:00 1015 29.97 844 24.92 26 78.8 26 5.1 41.2
14:05 1014 29.94 844 24.92 25.6 78 25 4.4 40
14:10 1014 29.94 844 24.92 25.4 77.6 24 3.8 38.9
14:15 1014 29.94 844 24.92 25.5 77.9 23 3.2 37.7
14:20 1015 29.97 844 24.92 25.7 78.2 24 3.6 38.4
14:25 1015 29.97 844 24.92 25.8 78.5 24 4.1 39.3
14:30 1015 29.97 844 24.92 25.8 78.5 23 3.6 38.4
14:35 1014 29.94 844 24.92 25.7 78.3 24 3.8 38.8
14:40 1014 29.94 844 24.92 25.6 78 24 3.7 38.7
14:45 1014 29.94 844 24.92 26.3 79.3 22 3.4 38.1
14:50 1014 29.94 844 24.92 26.8 80.2 22 3.4 38
14:55 1014 29.94 843 24.89 26.5 79.7 23 3.8 38.8
15:00 1014 29.94 843 24.89 26.1 79 23 3.9 39.1
15:05 1014 29.94 843 24.89 25.4 77.7 24 3.5 38.4
15:10 1014 29.94 843 24.89 25.7 78.3 25 4.4 39.9
15:15 1014 29.94 843 24.89 25.8 78.4 22 2.8 37
15:20 1014 29.94 843 24.89 26.1 78.9 22 2.8 37
15:25 1014 29.94 843 24.89 26.8 80.3 21 3.1 37.7
15:30 1014 29.94 843 24.89 27.6 81.7 21 3.6 38.4
15:35 1014 29.94 843 24.89 27.2 81 21 3.2 37.8
15:40 1014 29.94 843 24.89 26.6 79.8 22 3.1 37.6
15:45 1014 29.94 843 24.89 26.6 79.9 21 2.7 36.9
15:50 1014 29.94 843 24.89 27 80.6 22 3.5 38.3
15:55 1014 29.94 843 24.89 26.8 80.3 21 2.8 37
16:00 1014 29.94 843 24.89 26.6 79.8 21 2.4 36.4
16:05 1014 29.94 843 24.89 26.7 80.1 21 2.9 37.1
16:10 1014 29.94 843 24.89 26.9 80.4 21 3.2 37.8
16:15 1014 29.94 843 24.89 26.7 80 21 2.9 37.3
16:20 1014 29.94 843 24.89 26.8 80.2 22 3.3 38
16:25 1014 29.94 843 24.89 26.5 79.7 22 3.2 37.7
16:30 1014 29.94 843 24.89 26.4 79.5 22 3.5 38.3
16:35 1014 29.94 843 24.89 26.5 79.8 22 3.3 38
16:40 1014 29.94 843 24.89 26.5 79.6 21 2.7 36.9
16:45 1014 29.94 843 24.89 26.5 79.7 21 2.5 36.5
16:50 1014 29.94 843 24.89 26.7 80.1 21 2.8 37
16:55 1014 29.94 843 24.89 26.7 80 23 3.9 39.1
17:00 1014 29.94 843 24.89 26.2 79.1 26 5.3 41.6
17:05 1013 29.91 843 24.89 25.5 77.9 24 3.9 39.1
17:10 1013 29.91 843 24.89 26 78.8 23 3.6 38.5
17:15 1013 29.91 843 24.89 26.3 79.3 24 4.2 39.5
17:20 1013 29.91 843 24.89 27.1 80.8 21 3.1 37.7
17:25 1013 29.91 843 24.89 27.7 81.9 21 3.7 38.6
17:30 1013 29.91 843 24.89 27.3 81.1 22 3.8 38.9
17:35 1013 29.91 843 24.89 27.6 81.7 22 4 39.2
17:40 1013 29.91 843 24.89 27.3 81.1 22 3.8 38.8
17:45 1013 29.91 842 24.86 26.9 80.4 24 4.7 40.4
17:50 1013 29.91 842 24.86 26.9 80.4 22 3.7 38.6
17:55 1013 29.91 842 24.86 27.4 81.3 21 3.3 37.9
18:00 1013 29.91 842 24.86 27.9 82.1 20 3 37.4
18:05 1013 29.91 842 24.86 28.1 82.5 19 2.5 36.4
18:10 1013 29.91 842 24.86 28.2 82.8 19 2.9 37.2
18:15 1013 29.91 842 24.86 27.6 81.8 19 2.2 35.9
18:20 1013 29.91 842 24.86 27.5 81.6 19 2.1 35.8
18:25 1013 29.91 842 24.86 27 80.6 18 1 33.7
18:30 1013 29.91 842 24.86 26.5 79.7 19 1 33.8
18:35 1013 29.91 842 24.86 26.1 79.1 19 1 33.8
18:40 1013 29.91 842 24.86 25.8 78.5 21 2.2 35.9
18:45 1013 29.91 842 24.86 25.5 77.9 22 2.2 36
18:50 1013 29.91 842 24.86 25.7 78.2 20 1.2 34.2
18:55 1013 29.91 842 24.86 26 78.9 21 2.6 36.7
19:00 1013 29.91 842 24.86 26.2 79.2 20 1.8 35.2
19:05 1013 29.91 842 24.86 26.2 79.1 20 1.7 35.1
19:10 1013 29.91 842 24.86 26 78.9 20 1.9 35.5
19:15 1013 29.91 842 24.86 25.7 78.2 22 2.6 36.7
19:20 1013 29.91 842 24.86 25.1 77.2 22 2.4 36.3
19:25 1013 29.91 842 24.86 24.7 76.5 23 2.3 36.2
19:30 1013 29.91 842 24.86 24.7 76.4 22 1.8 35.2
19:35 1013 29.91 842 24.86 24.7 76.5 22 1.9 35.4
19:40 1013 29.91 842 24.86 24.6 76.3 23 2 35.7
19:45 1013 29.91 842 24.86 24.5 76.1 23 2 35.6
19:50 1013 29.91 842 24.86 24.6 76.3 22 2 35.5
19:55 1013 29.91 842 24.86 24.6 76.2 23 2 35.7
20:00 1013 29.91 842 24.86 24.3 75.7 24 2.9 37.2
20:05 1013 29.91 842 24.86 23.6 74.4 27 3.9 38.9
20:10 1013 29.91 842 24.86 22.9 73.3 28 3.5 38.4
20:15 1013 29.91 842 24.86 22.6 72.8 28 3.3 38
20:20 1013 29.91 842 24.86 22.7 72.8 26 2.7 36.8
20:25 1013 29.91 842 24.86 23 73.4 27 3.2 37.7
20:30 1013 29.91 842 24.86 22 71.6 31 4.4 39.9
20:35 1013 29.91 842 24.86 21.4 70.4 31 3.7 38.6
20:40 1013 29.91 842 24.86 21.1 69.9 30 2.9 37.2
20:45 1013 29.91 842 24.86 20.8 69.5 30 2.7 36.8
20:50 1013 29.91 842 24.86 20.9 69.7 29 2.2 35.9
20:55 1013 29.91 842 24.86 21.2 70.1 27 1.8 35.2
21:00 1013 29.91 842 24.86 21.1 70 30 2.8 37.1
21:05 1013 29.91 842 24.86 20.7 69.2 31 2.9 37.3
21:10 1013 29.91 842 24.86 20.2 68.4 31 2.9 37.3
21:15 1013 29.91 843 24.89 20.1 68.2 30 2.1 35.8
21:20 1013 29.91 843 24.89 20.4 68.6 31 2.7 36.8
21:25 1013 29.91 843 24.89 20.4 68.7 30 2.3 36.1
21:30 1013 29.91 843 24.89 20.3 68.5 30 2.5 36.5
21:35 1013 29.91 843 24.89 20.1 68.3 35 4.4 39.9
21:40 1013 29.91 843 24.89 19.7 67.4 32 2.6 36.7
21:45 1014 29.94 843 24.89 19.7 67.4 31 2 35.7
21:50 1014 29.94 843 24.89 20 67.9 31 2.7 36.8
21:55 1014 29.94 843 24.89 19.8 67.7 31 2.6 36.7
22:00 1014 29.94 843 24.89 19.5 67.1 33 3 37.4
22:05 1014 29.94 843 24.89 19.4 67 31 2.2 36
22:10 1014 29.94 843 24.89 19.9 67.8 31 2.3 36.2
22:15 1014 29.94 843 24.89 20.1 68.3 30 2.2 35.9
22:20 1014 29.94 843 24.89 20.2 68.3 30 2.4 36.3
22:25 1014 29.94 843 24.89 20.1 68.1 30 2.1 35.7
22:30 1014 29.94 843 24.89 20 68 31 2.4 36.2
22:35 1014 29.94 843 24.89 19.9 67.9 30 2.1 35.8
22:40 1014 29.94 843 24.89 19.7 67.5 32 2.6 36.6
22:45 1014 29.94 844 24.92 19.3 66.7 35 3.5 38.3
22:50 1014 29.94 844 24.92 18.5 65.2 36 3.2 37.8
22:55 1014 29.94 844 24.92 18.3 64.9 35 2.6 36.7
23:00 1014 29.94 844 24.92 18 64.5 42 4.9 40.8
23:05 1015 29.97 844 24.92 17.5 63.5 37 2.8 37
23:10 1015 29.97 844 24.92 17.4 63.4 38 3.2 37.7
23:15 1015 29.97 844 24.92 17.3 63.2 37 2.5 36.5
23:20 1015 29.97 844 24.92 17.4 63.3 36 2.4 36.4
23:25 1015 29.97 844 24.92 17.4 63.3 39 3.3 37.9
23:30 1015 29.97 844 24.92 17 62.6 38 2.9 37.1
23:35 1015 29.97 844 24.92 16.9 62.4 38 2.6 36.6
23:40 1015 29.97 844 24.92 17.1 62.7 38 2.8 37
23:45 1015 29.97 844 24.92 17.1 62.8 37 2.3 36.2
23:50 1015 29.97 844 24.92 17.3 63.1 36 2.1 35.9
23:55 1015 29.97 844 24.92 17.5 63.5 34 1.7 35.1
24:00 1015 29.97 844 24.92 17.6 63.7 34 1.9 35.4